Time;durP1;ratioP1;P1;durP2;ratioP2;P2;SDS_P1;SDS_P2;PMS_P1;PMS_P2;Temp;Humidity;BMP_temperature;BMP_pressure;BME280_temperature;BME280_humidity;BME280_pressure;Samples;Min_cycle;Max_cycle;Signal;HPM_P1;HPM_P2
2023/12/12 00:00:20;;;;;;;8.35;1.10;;;6.70;99.90;;;;;;5037756;28;20744;-66
2023/12/12 00:02:46;;;;;;;4.97;1.02;;;6.70;99.90;;;;;;5027183;28;20049;-66
2023/12/12 00:05:13;;;;;;;12.88;1.35;;;6.70;99.90;;;;;;5035381;28;20063;-66
2023/12/12 00:07:39;;;;;;;9.55;1.33;;;6.70;99.90;;;;;;5029917;28;20052;-66
2023/12/12 00:10:06;;;;;;;7.80;1.20;;;6.70;99.90;;;;;;5046715;28;20580;-66
2023/12/12 00:12:31;;;;;;;7.97;1.17;;;6.70;99.90;;;;;;5042111;28;20048;-66
2023/12/12 00:14:57;;;;;;;9.10;1.20;;;6.70;99.90;;;;;;5032971;28;20045;-66
2023/12/12 00:17:23;;;;;;;6.25;1.48;;;6.70;99.90;;;;;;5032891;28;20048;-67
2023/12/12 00:19:49;;;;;;;12.23;1.50;;;6.70;99.90;;;;;;5027052;28;20513;-65
2023/12/12 00:22:14;;;;;;;6.25;1.50;;;6.80;99.90;;;;;;5039902;28;20053;-65
2023/12/12 00:24:40;;;;;;;10.88;1.40;;;6.60;99.90;;;;;;5032806;28;20238;-66
2023/12/12 00:27:06;;;;;;;7.63;1.77;;;6.60;99.90;;;;;;5030389;28;20049;-66
2023/12/12 00:29:35;;;;;;;6.70;1.30;;;6.60;99.90;;;;;;5041907;28;20548;-66
2023/12/12 00:32:04;;;;;;;10.63;1.50;;;7.00;99.90;;;;;;5037042;28;20076;-66
2023/12/12 00:34:30;;;;;;;11.02;1.60;;;6.60;99.90;;;;;;5030807;28;20099;-66
2023/12/12 00:36:56;;;;;;;6.32;1.40;;;6.60;99.90;;;;;;5042898;28;20040;-66
2023/12/12 00:39:21;;;;;;;9.90;1.60;;;6.50;99.90;;;;;;5037905;28;20056;-66
2023/12/12 00:41:48;;;;;;;6.13;1.50;;;6.50;99.90;;;;;;5043175;28;20045;-65
2023/12/12 00:44:14;;;;;;;10.25;1.55;;;6.50;99.90;;;;;;5030116;28;20053;-66
2023/12/12 00:46:40;;;;;;;7.38;1.58;;;6.40;99.90;;;;;;5027551;28;20933;-66
2023/12/12 00:49:06;;;;;;;7.10;1.27;;;6.40;99.90;;;;;;5014962;28;20049;-66
2023/12/12 00:51:32;;;;;;;7.38;1.40;;;6.30;99.90;;;;;;5033838;28;20095;-66
2023/12/12 00:53:58;;;;;;;5.45;1.30;;;6.30;99.90;;;;;;5057849;28;20045;-65
2023/12/12 00:56:24;;;;;;;8.27;1.90;;;6.30;99.90;;;;;;5031250;28;20044;-65
2023/12/12 00:58:49;;;;;;;6.18;1.42;;;6.30;99.90;;;;;;5028095;28;20072;-67
2023/12/12 01:01:15;;;;;;;5.13;1.70;;;6.20;99.90;;;;;;5028306;28;20049;-65
2023/12/12 01:03:41;;;;;;;10.98;1.70;;;6.20;99.90;;;;;;5040012;28;20715;-66
2023/12/12 01:06:07;;;;;;;6.13;1.73;;;6.20;99.90;;;;;;5025484;28;20053;-65
2023/12/12 01:08:33;;;;;;;9.55;1.70;;;6.20;99.90;;;;;;5037927;28;20080;-66
2023/12/12 01:10:59;;;;;;;6.38;1.70;;;6.10;99.90;;;;;;5030408;28;20045;-66
2023/12/12 01:13:25;;;;;;;7.50;1.45;;;6.10;99.90;;;;;;5026758;28;20104;-65
2023/12/12 01:15:53;;;;;;;6.30;1.67;;;6.10;99.90;;;;;;5026378;28;20126;-66
2023/12/12 01:18:19;;;;;;;6.28;1.40;;;6.00;99.90;;;;;;5032132;28;20054;-66
2023/12/12 01:20:44;;;;;;;7.38;1.30;;;6.30;99.90;;;;;;5018015;28;20060;-66
2023/12/12 01:23:10;;;;;;;4.25;1.10;;;6.00;99.90;;;;;;5040502;28;20067;-66
2023/12/12 01:25:36;;;;;;;7.22;1.48;;;5.90;99.90;;;;;;5037263;28;20049;-66
2023/12/12 01:28:01;;;;;;;7.43;1.60;;;5.90;99.90;;;;;;5029857;28;20045;-66
2023/12/12 01:30:27;;;;;;;7.13;1.85;;;5.90;99.90;;;;;;5026017;28;20576;-66
2023/12/12 01:32:53;;;;;;;6.88;1.60;;;5.80;99.90;;;;;;5031618;28;20034;-65
2023/12/12 01:35:18;;;;;;;8.85;1.55;;;5.80;99.90;;;;;;5030516;28;20049;-65
2023/12/12 01:37:44;;;;;;;7.55;1.77;;;5.80;99.90;;;;;;5029937;28;20049;-66
2023/12/12 01:40:10;;;;;;;7.38;1.88;;;5.70;99.90;;;;;;5035044;28;20573;-67
2023/12/12 01:42:37;;;;;;;7.28;2.08;;;5.70;99.90;;;;;;5026965;28;20045;-66
2023/12/12 01:45:03;;;;;;;5.40;1.85;;;5.60;99.90;;;;;;5030204;28;20053;-65
2023/12/12 01:47:29;;;;;;;7.13;1.85;;;5.60;99.90;;;;;;5037389;28;20054;-65
2023/12/12 01:49:55;;;;;;;6.30;1.83;;;6.00;99.90;;;;;;5024566;28;20052;-65
2023/12/12 01:52:22;;;;;;;6.72;1.80;;;5.60;99.90;;;;;;5027857;28;20133;-65
2023/12/12 01:54:49;;;;;;;7.97;1.85;;;5.90;99.90;;;;;;5037332;28;20048;-64
2023/12/12 01:57:18;;;;;;;9.02;2.10;;;5.50;99.90;;;;;;5042252;28;20048;-66
2023/12/12 01:59:47;;;;;;;8.60;2.25;;;5.50;99.90;;;;;;5033095;28;20052;-66
2023/12/12 02:02:16;;;;;;;5.75;1.70;;;5.40;99.90;;;;;;5034869;28;20049;-66
2023/12/12 02:04:43;;;;;;;6.50;2.13;;;5.40;99.90;;;;;;5028419;28;20403;-66
2023/12/12 02:07:11;;;;;;;9.00;1.73;;;5.40;99.90;;;;;;5030476;28;20064;-66
2023/12/12 02:09:37;;;;;;;5.88;1.50;;;5.30;99.90;;;;;;5031097;28;20041;-65
2023/12/12 02:12:03;;;;;;;7.03;1.92;;;5.30;99.90;;;;;;5029960;28;20110;-65
2023/12/12 02:14:29;;;;;;;8.07;1.85;;;5.30;99.90;;;;;;5036688;28;20080;-66
2023/12/12 02:16:54;;;;;;;7.00;1.80;;;5.30;99.90;;;;;;5030768;28;20128;-65
2023/12/12 02:19:21;;;;;;;8.32;1.63;;;5.20;99.90;;;;;;5031742;28;20056;-66
2023/12/12 02:21:47;;;;;;;4.75;1.67;;;5.20;99.90;;;;;;5025119;28;20190;-65
2023/12/12 02:24:13;;;;;;;6.78;1.70;;;5.10;99.90;;;;;;5017540;28;20505;-66
2023/12/12 02:26:39;;;;;;;8.25;1.73;;;5.10;99.90;;;;;;5030896;28;20044;-65
2023/12/12 02:29:04;;;;;;;7.13;1.90;;;5.10;99.90;;;;;;5015618;28;20053;-66
2023/12/12 02:31:30;;;;;;;5.97;1.60;;;5.10;99.90;;;;;;5034225;28;20126;-66
2023/12/12 02:33:56;;;;;;;6.82;1.77;;;5.00;99.90;;;;;;5026779;28;20506;-66
2023/12/12 02:36:22;;;;;;;6.18;1.75;;;5.00;99.90;;;;;;5031262;28;20045;-65
2023/12/12 02:38:47;;;;;;;7.38;1.75;;;5.00;99.90;;;;;;5039439;28;20087;-65
2023/12/12 02:41:14;;;;;;;6.82;1.83;;;4.90;99.90;;;;;;5041899;28;20060;-65
2023/12/12 02:43:40;;;;;;;7.63;2.78;;;5.10;99.90;;;;;;5033490;28;20055;-66
2023/12/12 02:46:06;;;;;;;6.63;2.00;;;4.80;99.90;;;;;;5026511;28;20048;-65
2023/12/12 02:48:32;;;;;;;9.52;1.85;;;4.90;99.90;;;;;;5028110;28;20111;-65
2023/12/12 02:50:57;;;;;;;4.97;1.67;;;4.80;99.90;;;;;;5016712;28;20041;-66
2023/12/12 02:53:23;;;;;;;8.48;1.48;;;4.80;99.90;;;;;;5019677;28;20080;-65
2023/12/12 02:55:49;;;;;;;7.07;1.55;;;4.80;99.90;;;;;;5038454;28;20037;-65
2023/12/12 02:58:14;;;;;;;8.07;1.50;;;4.80;99.90;;;;;;5033842;28;20053;-65
2023/12/12 03:00:40;;;;;;;7.32;1.98;;;4.70;99.90;;;;;;5030577;28;20049;-65
2023/12/12 03:03:06;;;;;;;6.40;1.63;;;4.70;99.90;;;;;;5028250;28;20034;-65
2023/12/12 03:05:31;;;;;;;5.82;1.48;;;4.80;99.90;;;;;;5034546;28;20045;-65
2023/12/12 03:07:57;;;;;;;7.55;1.88;;;4.60;99.90;;;;;;5025742;28;20136;-65
2023/12/12 03:10:23;;;;;;;9.20;1.70;;;4.60;99.90;;;;;;5034106;28;20421;-65
2023/12/12 03:12:49;;;;;;;9.10;1.42;;;4.60;99.90;;;;;;5035157;28;20052;-65
2023/12/12 03:15:14;;;;;;;8.20;1.83;;;4.60;99.90;;;;;;5025107;28;20723;-65
2023/12/12 03:17:40;;;;;;;6.30;1.58;;;4.50;99.90;;;;;;5025096;28;20167;-64
2023/12/12 03:20:06;;;;;;;7.82;1.67;;;4.50;99.90;;;;;;5035053;28;20524;-65
2023/12/12 03:22:32;;;;;;;7.78;1.85;;;4.50;99.90;;;;;;5033845;28;20049;-65
2023/12/12 03:24:58;;;;;;;8.10;1.85;;;4.60;99.90;;;;;;5012401;28;20052;-65
2023/12/12 03:27:24;;;;;;;6.97;1.75;;;4.50;99.90;;;;;;5036298;28;20045;-65
2023/12/12 03:29:49;;;;;;;5.38;1.90;;;4.40;99.90;;;;;;5054787;28;20052;-65
2023/12/12 03:32:15;;;;;;;7.38;1.83;;;4.50;99.90;;;;;;5055319;28;20128;-65
2023/12/12 03:34:41;;;;;;;5.88;1.70;;;4.40;99.90;;;;;;5040838;28;20068;-65
2023/12/12 03:37:07;;;;;;;5.97;1.50;;;4.40;99.90;;;;;;5039780;28;20038;-65
2023/12/12 03:39:32;;;;;;;7.22;1.67;;;4.30;99.90;;;;;;5039614;28;20045;-65
2023/12/12 03:41:58;;;;;;;4.25;1.40;;;4.30;99.90;;;;;;5030703;28;20453;-65
2023/12/12 03:44:24;;;;;;;5.50;1.60;;;4.30;99.90;;;;;;5035906;28;20142;-68
2023/12/12 03:46:49;;;;;;;5.07;1.90;;;4.30;99.90;;;;;;5037503;28;20045;-65
2023/12/12 03:49:15;;;;;;;6.18;1.67;;;4.20;99.90;;;;;;5040931;28;20051;-65
2023/12/12 03:51:41;;;;;;;3.70;1.40;;;4.20;99.90;;;;;;5049956;28;20126;-66
2023/12/12 03:54:09;;;;;;;6.57;1.67;;;4.10;99.90;;;;;;5030491;28;20040;-65
2023/12/12 03:56:35;;;;;;;7.22;1.70;;;4.10;99.90;;;;;;5034682;28;20053;-64
2023/12/12 03:59:01;;;;;;;7.03;1.52;;;4.10;99.90;;;;;;5036551;28;20038;-65
2023/12/12 04:01:26;;;;;;;4.30;1.88;;;4.00;99.90;;;;;;5032580;28;20045;-65
2023/12/12 04:03:55;;;;;;;7.00;1.63;;;4.00;99.90;;;;;;5035553;28;20086;-66
2023/12/12 04:06:22;;;;;;;4.78;1.55;;;4.00;99.90;;;;;;5026751;28;20124;-65
2023/12/12 04:08:49;;;;;;;7.20;1.55;;;3.90;99.90;;;;;;5052400;28;20048;-65
2023/12/12 04:11:14;;;;;;;4.15;1.50;;;3.90;99.90;;;;;;5045858;28;20413;-65
2023/12/12 04:13:40;;;;;;;4.47;1.50;;;3.90;99.90;;;;;;5040242;28;20305;-65
2023/12/12 04:16:06;;;;;;;3.65;1.50;;;3.80;99.90;;;;;;5028514;28;21157;-65
2023/12/12 04:18:31;;;;;;;4.50;1.60;;;3.80;99.90;;;;;;5031796;28;20048;-65
2023/12/12 04:20:57;;;;;;;4.85;1.40;;;3.90;99.90;;;;;;5042207;28;20048;-65
2023/12/12 04:23:23;;;;;;;7.65;1.70;;;3.80;99.90;;;;;;5041084;28;20756;-65
2023/12/12 04:25:48;;;;;;;6.15;1.50;;;3.70;99.90;;;;;;5029881;28;20040;-65
2023/12/12 04:28:14;;;;;;;5.75;1.60;;;3.70;99.90;;;;;;5037443;28;20037;-65
2023/12/12 04:30:40;;;;;;;6.53;1.88;;;3.70;99.90;;;;;;5029929;28;20053;-65
2023/12/12 04:33:06;;;;;;;4.70;1.83;;;3.60;99.90;;;;;;5029066;28;20049;-65
2023/12/12 04:35:32;;;;;;;6.35;2.00;;;3.60;99.90;;;;;;5039717;28;20143;-65
2023/12/12 04:37:58;;;;;;;7.57;2.00;;;3.60;99.90;;;;;;5034253;28;20052;-65
2023/12/12 04:40:27;;;;;;;4.03;1.77;;;4.30;99.90;;;;;;5039436;28;20061;-65
2023/12/12 04:42:53;;;;;;;7.20;2.10;;;3.80;99.90;;;;;;5034816;28;20111;-65
2023/12/12 04:45:19;;;;;;;6.30;2.15;;;3.60;99.90;;;;;;5027183;28;21327;-65
2023/12/12 04:47:45;;;;;;;12.10;2.45;;;3.60;99.90;;;;;;5046671;28;20098;-65
2023/12/12 04:50:10;;;;;;;11.13;2.67;;;3.60;99.90;;;;;;5041902;28;20056;-65
2023/12/12 04:52:36;;;;;;;8.23;2.00;;;3.60;99.90;;;;;;5034398;28;20053;-65
2023/12/12 04:55:02;;;;;;;6.97;2.30;;;4.40;99.90;;;;;;5035964;28;20049;-65
2023/12/12 04:57:28;;;;;;;11.77;2.40;;;3.60;99.90;;;;;;5029091;28;20055;-66
2023/12/12 04:59:53;;;;;;;10.13;2.30;;;3.60;99.90;;;;;;5032056;28;20402;-65
2023/12/12 05:02:23;;;;;;;7.68;2.28;;;3.60;99.90;;;;;;5034810;28;20127;-64
2023/12/12 05:04:49;;;;;;;6.97;2.25;;;3.60;99.90;;;;;;5017462;28;20044;-65
2023/12/12 05:07:16;;;;;;;9.27;2.65;;;3.60;99.90;;;;;;5049475;28;20044;-64
2023/12/12 05:09:42;;;;;;;11.18;3.00;;;3.60;99.90;;;;;;5025006;28;20076;-65
2023/12/12 05:12:08;;;;;;;9.77;2.60;;;3.60;99.90;;;;;;5031319;28;20573;-64
2023/12/12 05:14:34;;;;;;;12.35;3.38;;;3.60;99.90;;;;;;5033930;28;20041;-65
2023/12/12 05:17:00;;;;;;;9.73;2.53;;;3.60;99.90;;;;;;5032601;28;20539;-65
2023/12/12 05:19:25;;;;;;;8.52;2.70;;;3.60;99.90;;;;;;5047958;28;20053;-64
2023/12/12 05:21:51;;;;;;;10.68;2.65;;;3.60;99.90;;;;;;5042088;28;20063;-65
2023/12/12 05:24:18;;;;;;;9.93;3.00;;;3.70;99.90;;;;;;5031975;28;20068;-66
2023/12/12 05:26:43;;;;;;;8.68;2.83;;;3.90;99.90;;;;;;5018066;28;20132;-66
2023/12/12 05:29:09;;;;;;;11.43;3.30;;;3.70;99.90;;;;;;5033089;28;20152;-66
2023/12/12 05:31:35;;;;;;;9.20;2.88;;;4.40;99.90;;;;;;5011019;28;20417;-67
2023/12/12 05:34:00;;;;;;;12.85;3.28;;;3.90;99.90;;;;;;5016476;28;20141;-66
2023/12/12 05:36:26;;;;;;;8.20;3.00;;;3.70;99.90;;;;;;5036755;28;20141;-66
2023/12/12 05:38:52;;;;;;;10.80;3.05;;;4.20;99.90;;;;;;5024236;28;20421;-66
2023/12/12 05:41:17;;;;;;;10.80;3.28;;;3.70;99.90;;;;;;5034823;28;20097;-66
2023/12/12 05:43:43;;;;;;;8.57;3.22;;;3.80;99.90;;;;;;5039826;28;20049;-65
2023/12/12 05:46:10;;;;;;;9.43;3.47;;;3.80;99.90;;;;;;5042138;28;20051;-66
2023/12/12 05:48:36;;;;;;;11.18;3.80;;;3.80;99.90;;;;;;5045722;28;20045;-66
2023/12/12 05:51:03;;;;;;;8.23;3.40;;;3.80;99.90;;;;;;5040276;28;20047;-66
2023/12/12 05:53:28;;;;;;;12.23;4.03;;;3.80;99.90;;;;;;5039332;28;20033;-66
2023/12/12 05:55:57;;;;;;;16.45;4.32;;;3.80;99.90;;;;;;5044590;28;20044;-66
2023/12/12 05:58:23;;;;;;;13.25;3.72;;;3.90;99.90;;;;;;5030023;28;20045;-66
2023/12/12 06:00:51;;;;;;;10.38;3.35;;;3.80;99.90;;;;;;5037934;28;20098;-66
2023/12/12 06:03:17;;;;;;;20.17;4.90;;;3.80;99.90;;;;;;5033103;28;20043;-65
2023/12/12 06:05:43;;;;;;;16.67;5.03;;;3.90;99.90;;;;;;5025885;28;20081;-66
2023/12/12 06:08:11;;;;;;;11.05;4.57;;;3.80;99.90;;;;;;5027157;28;20045;-65
2023/12/12 06:10:37;;;;;;;17.05;4.97;;;3.80;99.90;;;;;;5016475;28;20609;-66
2023/12/12 06:13:04;;;;;;;11.48;3.97;;;3.80;99.90;;;;;;5028827;28;20440;-66
2023/12/12 06:15:29;;;;;;;12.43;4.50;;;3.80;99.90;;;;;;5054726;28;20409;-66
2023/12/12 06:17:55;;;;;;;13.20;4.43;;;3.80;99.90;;;;;;5032121;28;20042;-66
2023/12/12 06:20:21;;;;;;;14.65;5.28;;;3.80;99.90;;;;;;5028995;28;20516;-66
2023/12/12 06:22:47;;;;;;;14.63;4.60;;;3.80;99.90;;;;;;5059568;28;20173;-66
2023/12/12 06:25:12;;;;;;;13.02;4.80;;;3.80;99.90;;;;;;5053029;28;20186;-66
2023/12/12 06:27:38;;;;;;;10.77;4.30;;;3.70;99.90;;;;;;5022976;28;20053;-66
2023/12/12 06:30:04;;;;;;;10.82;4.35;;;3.70;99.90;;;;;;5040900;28;20041;-66
2023/12/12 06:32:30;;;;;;;18.38;5.07;;;3.70;99.90;;;;;;5032455;28;20053;-65
2023/12/12 06:34:56;;;;;;;14.10;5.30;;;3.70;99.90;;;;;;5040942;28;20041;-66
2023/12/12 06:37:22;;;;;;;11.38;5.63;;;3.70;99.90;;;;;;5036152;28;20068;-66
2023/12/12 06:39:48;;;;;;;13.25;5.72;;;3.70;99.90;;;;;;5033807;28;20183;-65
2023/12/12 06:42:14;;;;;;;18.85;5.55;;;3.70;99.90;;;;;;5033604;28;20060;-65
2023/12/12 06:44:40;;;;;;;14.40;6.03;;;3.70;99.90;;;;;;5031927;28;20057;-65
2023/12/12 06:47:06;;;;;;;17.73;5.82;;;3.70;99.90;;;;;;5023513;28;20104;-67
2023/12/12 06:49:32;;;;;;;12.43;5.30;;;3.60;99.90;;;;;;5028710;28;20053;-66
2023/12/12 06:51:58;;;;;;;17.90;6.70;;;3.70;99.90;;;;;;5021109;28;20102;-67
2023/12/12 06:54:23;;;;;;;13.43;5.78;;;3.70;99.90;;;;;;5032574;28;20068;-66
2023/12/12 06:56:49;;;;;;;15.63;6.45;;;3.70;99.90;;;;;;5040843;28;20110;-66
2023/12/12 06:59:15;;;;;;;18.05;6.40;;;3.70;99.90;;;;;;5035920;28;20755;-66
2023/12/12 07:01:41;;;;;;;18.83;6.60;;;3.70;99.90;;;;;;5039226;28;20053;-66
2023/12/12 07:04:06;;;;;;;15.48;6.00;;;3.80;99.90;;;;;;5034789;28;20060;-66
2023/12/12 07:06:32;;;;;;;14.00;6.85;;;3.70;99.90;;;;;;5042673;28;20114;-66
2023/12/12 07:08:58;;;;;;;41.65;7.45;;;4.50;99.90;;;;;;5021066;28;20053;-67
2023/12/12 07:11:24;;;;;;;32.38;7.18;;;3.70;99.90;;;;;;5035568;28;20584;-66
2023/12/12 07:13:50;;;;;;;82.20;9.73;;;3.70;99.90;;;;;;5033931;28;20041;-66
2023/12/12 07:16:15;;;;;;;76.32;8.65;;;3.90;99.90;;;;;;5035864;28;20463;-65
2023/12/12 07:18:41;;;;;;;108.45;11.05;;;3.70;99.90;;;;;;5034755;28;20045;-67
2023/12/12 07:21:07;;;;;;;88.88;9.23;;;3.80;99.90;;;;;;5038850;28;20056;-67
2023/12/12 07:23:33;;;;;;;94.13;9.73;;;3.80;99.90;;;;;;5037220;28;20394;-66
2023/12/12 07:25:59;;;;;;;58.17;9.68;;;3.80;99.90;;;;;;5037062;28;20397;-66
2023/12/12 07:28:25;;;;;;;68.20;9.23;;;3.80;99.90;;;;;;5041921;28;20053;-66
2023/12/12 07:30:53;;;;;;;71.65;8.95;;;4.20;99.90;;;;;;5037373;28;20516;-67
2023/12/12 07:33:19;;;;;;;81.50;9.73;;;3.90;99.90;;;;;;5030342;28;20128;-66
2023/12/12 07:35:46;;;;;;;24.95;8.15;;;4.00;99.90;;;;;;5036593;28;20048;-65
2023/12/12 07:38:12;;;;;;;114.35;10.52;;;3.80;99.90;;;;;;5037067;28;20345;-66
2023/12/12 07:40:37;;;;;;;121.90;11.18;;;3.90;99.90;;;;;;5036450;28;20111;-66
2023/12/12 07:43:03;;;;;;;58.78;9.68;;;3.90;99.90;;;;;;5027191;28;20514;-66
2023/12/12 07:45:29;;;;;;;49.45;9.35;;;3.90;99.90;;;;;;5033524;28;20053;-66
2023/12/12 07:47:54;;;;;;;99.82;11.02;;;3.90;99.90;;;;;;5027087;28;20049;-66
2023/12/12 07:50:20;;;;;;;123.57;11.70;;;4.10;99.90;;;;;;5039740;28;20053;-66
2023/12/12 07:52:47;;;;;;;52.75;11.00;;;4.00;99.90;;;;;;5032420;28;20053;-65
2023/12/12 07:55:13;;;;;;;131.93;13.73;;;4.00;99.90;;;;;;5032221;28;20049;-69
2023/12/12 07:57:39;;;;;;;107.93;15.40;;;4.00;99.90;;;;;;5030357;28;20854;-65
2023/12/12 08:00:10;;;;;;;75.43;13.60;;;4.00;99.90;;;;;;5032462;28;20100;-66
2023/12/12 08:02:36;;;;;;;71.50;13.15;;;4.00;99.90;;;;;;5016793;28;20507;-66
2023/12/12 08:05:03;;;;;;;84.65;11.93;;;4.10;99.90;;;;;;5031743;28;20187;-66
2023/12/12 08:07:29;;;;;;;146.00;16.00;;;4.10;99.90;;;;;;5031358;28;20045;-73
2023/12/12 08:09:54;;;;;;;141.02;14.48;;;4.20;99.90;;;;;;5036609;28;20502;-66
2023/12/12 08:12:23;;;;;;;99.38;13.48;;;4.10;99.90;;;;;;5032703;28;20041;-65
2023/12/12 08:14:50;;;;;;;118.32;15.20;;;4.20;99.90;;;;;;5039526;28;20055;-65
2023/12/12 08:17:16;;;;;;;169.20;17.05;;;4.20;99.90;;;;;;5043409;28;20151;-66
2023/12/12 08:19:41;;;;;;;49.88;12.50;;;4.20;99.90;;;;;;5034279;28;20140;-65
2023/12/12 08:22:07;;;;;;;70.47;13.68;;;4.20;99.90;;;;;;5037626;28;20037;-65
2023/12/12 08:24:33;;;;;;;36.67;11.98;;;4.20;99.90;;;;;;5043170;28;20833;-65
2023/12/12 08:26:59;;;;;;;95.63;14.13;;;4.20;99.90;;;;;;5019450;28;20049;-65
2023/12/12 08:29:25;;;;;;;77.47;13.90;;;4.20;99.90;;;;;;5034269;28;20049;-65
2023/12/12 08:31:51;;;;;;;63.17;13.95;;;4.20;99.90;;;;;;5034478;28;20384;-65
2023/12/12 08:34:16;;;;;;;49.45;13.05;;;4.30;99.90;;;;;;5038922;28;20041;-73
2023/12/12 08:36:42;;;;;;;77.57;14.20;;;4.30;99.90;;;;;;5033016;28;20040;-64
2023/12/12 08:39:08;;;;;;;32.75;13.82;;;4.30;99.90;;;;;;5044648;28;20032;-65
2023/12/12 08:41:37;;;;;;;42.75;13.88;;;4.30;99.90;;;;;;5039716;28;20187;-66
2023/12/12 08:44:03;;;;;;;46.53;13.93;;;4.40;99.90;;;;;;5034507;28;20041;-65
2023/12/12 08:46:29;;;;;;;43.25;15.23;;;4.40;99.90;;;;;;5036968;28;20046;-65
2023/12/12 08:48:56;;;;;;;54.03;14.50;;;4.40;99.90;;;;;;5031285;28;20060;-66
2023/12/12 08:51:23;;;;;;;50.80;15.02;;;4.40;99.90;;;;;;5024070;28;20058;-66
2023/12/12 08:53:49;;;;;;;126.05;17.55;;;4.50;99.90;;;;;;5029844;28;20079;-65
2023/12/12 08:56:16;;;;;;;62.72;15.20;;;4.80;99.90;;;;;;5019232;28;20136;-65
2023/12/12 08:58:46;;;;;;;78.63;14.13;;;4.50;99.90;;;;;;5036221;28;20574;-65
2023/12/12 09:01:14;;;;;;;79.47;15.68;;;4.50;99.90;;;;;;5020270;28;20053;-66
2023/12/12 09:03:40;;;;;;;48.30;14.57;;;4.50;99.90;;;;;;5030200;28;20084;-65
2023/12/12 09:06:06;;;;;;;123.00;16.85;;;4.50;99.90;;;;;;5036168;28;20094;-65
2023/12/12 09:08:32;;;;;;;103.78;16.65;;;4.50;99.90;;;;;;5034019;28;20064;-65
2023/12/12 09:10:59;;;;;;;85.95;17.05;;;4.50;99.90;;;;;;5038210;28;20413;-73
2023/12/12 09:13:25;;;;;;;39.58;14.60;;;4.50;99.90;;;;;;5038043;28;20719;-65
2023/12/12 09:15:51;;;;;;;119.75;15.80;;;4.60;99.90;;;;;;5037090;28;20056;-64
2023/12/12 09:18:17;;;;;;;101.85;17.25;;;4.60;99.90;;;;;;5037139;28;20036;-64
2023/12/12 09:20:42;;;;;;;66.05;15.80;;;4.50;99.90;;;;;;5038457;28;20073;-64
2023/12/12 09:23:08;;;;;;;59.30;14.70;;;4.60;99.90;;;;;;5036389;28;20447;-64
2023/12/12 09:25:34;;;;;;;58.35;15.90;;;4.60;99.90;;;;;;5037522;28;20041;-65
2023/12/12 09:28:00;;;;;;;41.72;15.27;;;4.50;99.90;;;;;;5029096;28;20059;-64
2023/12/12 09:30:26;;;;;;;54.75;16.58;;;4.50;99.90;;;;;;5043502;28;20045;-65
2023/12/12 09:32:52;;;;;;;55.75;14.45;;;4.50;99.90;;;;;;5037014;28;20740;-65
2023/12/12 09:35:18;;;;;;;43.65;15.27;;;4.60;99.90;;;;;;5036850;28;20049;-65
2023/12/12 09:37:44;;;;;;;67.28;15.73;;;4.50;99.90;;;;;;5024374;28;20037;-64
2023/12/12 09:40:10;;;;;;;73.03;15.75;;;4.50;99.90;;;;;;5032334;28;20559;-66
2023/12/12 09:42:36;;;;;;;77.28;15.40;;;4.50;99.90;;;;;;5018582;28;20118;-65
2023/12/12 09:45:06;;;;;;;45.85;15.82;;;4.50;99.90;;;;;;5021290;28;20788;-65
2023/12/12 09:47:32;;;;;;;72.10;17.55;;;4.60;99.90;;;;;;5029875;28;20057;-65
2023/12/12 09:49:58;;;;;;;50.78;17.13;;;4.60;99.90;;;;;;5028236;28;20254;-66
2023/12/12 09:52:34;;;;;;;74.50;18.20;;;4.60;99.90;;;;;;5010708;28;20135;-64
2023/12/12 09:55:00;;;;;;;76.53;18.25;;;4.60;99.90;;;;;;5028571;28;20860;-65
2023/12/12 09:57:28;;;;;;;75.20;16.48;;;4.60;99.90;;;;;;5032140;28;20152;-64
2023/12/12 09:59:54;;;;;;;81.47;20.23;;;4.60;99.90;;;;;;5028639;28;20040;-64
2023/12/12 10:02:23;;;;;;;80.35;19.85;;;4.80;99.90;;;;;;5029299;28;20055;-65
2023/12/12 10:04:51;;;;;;;42.47;16.65;;;4.70;99.90;;;;;;5033002;28;20735;-64
2023/12/12 10:07:18;;;;;;;64.00;19.10;;;4.70;99.90;;;;;;5048833;28;20052;-65
2023/12/12 10:09:44;;;;;;;92.45;19.05;;;4.70;99.90;;;;;;5034372;28;20064;-65
2023/12/12 10:12:10;;;;;;;54.33;17.65;;;4.70;99.90;;;;;;5029017;28;20064;-65
2023/12/12 10:14:37;;;;;;;93.63;19.95;;;4.70;99.90;;;;;;5030418;28;20049;-65
2023/12/12 10:17:04;;;;;;;117.28;20.15;;;4.70;99.90;;;;;;5014683;28;20053;-64
2023/12/12 10:19:30;;;;;;;115.25;21.40;;;4.80;99.90;;;;;;5040183;28;20053;-64
2023/12/12 10:22:08;;;;;;;87.18;17.75;;;5.20;99.90;;;;;;5032838;28;20041;-68
2023/12/12 10:24:37;;;;;;;38.72;18.60;;;4.60;99.90;;;;;;5029465;28;20493;-67
2023/12/12 10:27:06;;;;;;;115.78;20.58;;;4.80;99.90;;;;;;5030938;28;20114;-66
2023/12/12 10:29:32;;;;;;;139.18;26.42;;;4.90;99.90;;;;;;5033372;28;20596;-67
2023/12/12 10:31:59;;;;;;;109.97;20.88;;;4.90;99.90;;;;;;5029177;28;20079;-66
2023/12/12 10:34:27;;;;;;;100.78;20.00;;;4.80;99.90;;;;;;5026995;28;20262;-66
2023/12/12 10:36:53;;;;;;;98.78;20.27;;;5.00;99.90;;;;;;5030934;28;20399;-66
2023/12/12 10:39:19;;;;;;;72.03;20.05;;;4.80;99.90;;;;;;5027746;28;20052;-66
2023/12/12 10:41:55;;;;;;;126.15;21.67;;;4.90;99.90;;;;;;5033222;28;20098;-66
2023/12/12 10:44:25;;;;;;;125.18;22.00;;;4.90;99.90;;;;;;5028368;28;20037;-66
2023/12/12 10:46:52;;;;;;;94.90;21.25;;;4.90;99.90;;;;;;5026303;28;20110;-66
2023/12/12 10:49:21;;;;;;;127.13;20.45;;;4.90;99.90;;;;;;5026090;28;20049;-66
2023/12/12 10:51:48;;;;;;;78.95;17.65;;;5.10;99.90;;;;;;5027667;28;20176;-66
2023/12/12 10:54:16;;;;;;;91.03;18.52;;;4.90;99.90;;;;;;5031638;28;20116;-66
2023/12/12 10:56:46;;;;;;;94.75;18.65;;;4.90;99.90;;;;;;5029434;28;20059;-67
2023/12/12 10:59:16;;;;;;;76.88;17.35;;;5.70;99.90;;;;;;5031350;28;20691;-67
2023/12/12 11:01:47;;;;;;;93.35;18.98;;;4.90;99.90;;;;;;5028960;28;20410;-66
2023/12/12 11:04:17;;;;;;;;;;;4.90;99.90;;;;;;5036257;28;20121;-66
2023/12/12 11:06:43;;;;;;;75.35;17.98;;;4.90;99.90;;;;;;5028866;28;19925;-66
2023/12/12 11:09:13;;;;;;;49.08;17.80;;;5.00;99.90;;;;;;5028846;28;20960;-66
2023/12/12 11:11:48;;;;;;;41.33;17.70;;;5.00;99.90;;;;;;5029767;28;20477;-67
2023/12/12 11:14:16;;;;;;;40.65;17.15;;;4.90;99.90;;;;;;5013864;28;20085;-66
2023/12/12 11:16:48;;;;;;;42.72;17.98;;;5.20;99.90;;;;;;5031498;28;20049;-66
2023/12/12 11:19:18;;;;;;;44.50;17.88;;;5.00;99.90;;;;;;5020376;28;20140;-66
2023/12/12 11:21:49;;;;;;;33.40;17.95;;;5.00;99.90;;;;;;5026474;28;20048;-68
2023/12/12 11:24:20;;;;;;;38.60;18.88;;;5.00;99.90;;;;;;5036529;28;20069;-66
2023/12/12 11:26:52;;;;;;;37.10;19.77;;;5.20;99.90;;;;;;5030487;28;20521;-66
2023/12/12 11:29:24;;;;;;;39.53;18.73;;;5.00;99.90;;;;;;5038656;28;20412;-66
2023/12/12 11:32:03;;;;;;;42.50;19.67;;;5.10;99.90;;;;;;5024556;28;20526;-66
2023/12/12 11:34:40;;;;;;;35.97;18.90;;;5.10;99.90;;;;;;5028093;28;20041;-67
2023/12/12 11:37:08;;;;;;;36.78;19.52;;;5.10;99.90;;;;;;5028226;28;20056;-67
2023/12/12 11:39:57;;;;;;;39.78;20.38;;;5.20;99.90;;;;;;5045249;28;20094;-66
2023/12/12 11:42:28;;;;;;;38.38;18.55;;;5.20;99.90;;;;;;5033670;28;20065;-66
2023/12/12 11:45:00;;;;;;;37.03;18.92;;;5.30;99.90;;;;;;5031587;28;20461;-66
2023/12/12 11:47:26;;;;;;;;;;;5.40;99.90;;;;;;5033061;28;20135;-66
2023/12/12 11:50:11;;;;;;;41.38;18.20;;;5.40;99.90;;;;;;5029846;28;20588;-67
2023/12/12 11:52:39;;;;;;;42.17;19.05;;;5.30;99.90;;;;;;5036786;28;20084;-67
2023/12/12 11:55:06;;;;;;;41.88;20.05;;;5.30;99.90;;;;;;5030456;28;20045;-66
2023/12/12 11:57:32;;;;;;;41.92;20.30;;;5.40;99.90;;;;;;5026966;28;20045;-64
2023/12/12 12:00:05;;;;;;;40.17;20.33;;;5.30;99.90;;;;;;5029277;28;20669;-66
2023/12/12 12:02:31;;;;;;;39.50;18.58;;;5.40;99.90;;;;;;5029828;28;20041;-66
2023/12/12 12:04:57;;;;;;;38.83;18.92;;;5.40;99.90;;;;;;5032471;28;21047;-66
2023/12/12 12:07:24;;;;;;;43.38;19.63;;;5.40;99.90;;;;;;5015307;28;20387;-66
2023/12/12 12:09:53;;;;;;;40.95;19.95;;;6.10;99.90;;;;;;5033455;28;20056;-66
2023/12/12 12:12:20;;;;;;;40.35;19.63;;;5.50;99.90;;;;;;5035645;28;20140;-66
2023/12/12 12:14:46;;;;;;;38.30;19.63;;;5.50;99.90;;;;;;5034265;28;20048;-66
2023/12/12 12:17:12;;;;;;;38.83;19.08;;;5.50;99.90;;;;;;5036242;28;20092;-66
2023/12/12 12:19:38;;;;;;;40.00;18.95;;;5.50;99.90;;;;;;5018616;28;20059;-66
2023/12/12 12:22:09;;;;;;;35.17;18.48;;;5.60;99.90;;;;;;5029020;28;20857;-66
2023/12/12 12:24:48;;;;;;;35.67;18.03;;;5.60;99.90;;;;;;5035583;28;20057;-66
2023/12/12 12:27:14;;;;;;;36.85;17.73;;;5.60;99.90;;;;;;5048477;28;20032;-66
2023/12/12 12:29:41;;;;;;;37.00;18.60;;;5.60;99.90;;;;;;5058619;28;20044;-66
2023/12/12 12:32:16;;;;;;;38.70;18.40;;;5.60;99.90;;;;;;5038057;28;20064;-66
2023/12/12 12:34:42;;;;;;;36.42;17.90;;;5.60;99.90;;;;;;5048530;28;20051;-66
2023/12/12 12:37:29;;;;;;;40.72;18.73;;;5.70;99.90;;;;;;5042522;28;20068;-66
2023/12/12 12:39:56;;;;;;;36.03;19.55;;;5.70;99.90;;;;;;5033957;28;20076;-66
2023/12/12 12:42:30;;;;;;;36.15;20.20;;;5.70;99.90;;;;;;5031731;28;20041;-66
2023/12/12 12:44:56;;;;;;;43.92;21.00;;;5.70;99.90;;;;;;5038083;28;20098;-66